Sint Annaparochie, Netherlands
Current Conditions -  °F | °C
As of 11:56 AM on Wednesday 26 Nov 2014 (Local Time) from EHLW Reporting Station
Few Clouds Few Clouds  
Wind Chill: 33°   Ceiling: Unl
Heat Index: 41°   Visibility: 6mi
Dew Point: 36°   Wind: 14mph
Humidity: 81%   Direction: 110°ESE
Pressure: 30.03"   Gusts: NA
Location:  53.28°N, 5.66°E
Report Text: EHLW 261056Z AUTO 11012KT 9999 FEW013 05/02 Q1017 BLU
Loading
Personal Weather Stations






























Interactive Weather Map New forecast layout! Learn more

10-Day Weather Forecast

Advertisements
Track Severe Weather on mobile